Time;durP1;ratioP1;P1;durP2;ratioP2;P2;SDS_P1;SDS_P2;PMS_P1;PMS_P2;Temp;Humidity;BMP_temperature;BMP_pressure;BME280_temperature;BME280_humidity;BME280_pressure;Samples;Min_cycle;Max_cycle;Signal;HPM_P1;HPM_P2
2021/07/21 00:00:41;;;;;;;;;;;;;;;-144.99;91.42;52285.03;5089915;28;19967;-78
2021/07/21 00:03:07;;;;;;;;;;;;;;;-144.99;91.56;52260.56;5077859;28;19944;-79
2021/07/21 00:05:35;;;;;;;;;;;;;;;-144.99;91.78;52264.66;5090310;28;20045;-79
2021/07/21 00:08:01;;;;;;;;;;;;;;;-144.99;91.74;52248.34;5091733;28;20261;-79
2021/07/21 00:10:30;;;;;;;;;;;;;;;-144.99;92.20;52264.66;5090902;28;19991;-79
2021/07/21 00:15:49;;;;;;;;;;;;;;;-144.99;92.44;52244.28;5089628;28;20325;-80
2021/07/21 00:18:19;;;;;;;;;;;;;;;-144.99;92.21;52244.28;5078452;28;19997;-79
2021/07/21 00:20:47;;;;;;;;;;;;;;;-144.99;92.50;52248.34;5090221;28;20070;-79
2021/07/21 00:23:14;;;;;;;;;;;;;;;-144.99;92.89;52260.56;5086903;28;19960;-81
2021/07/21 00:25:40;;;;;;;;;;;;;;;-144.99;93.19;52238.16;5092946;28;19924;-77
2021/07/21 00:28:08;;;;;;;;;;;;;;;-144.99;93.10;52219.81;5091836;28;19937;-81
2021/07/21 00:30:35;;;;;;;;;;;;;;;-144.99;93.55;52262.63;5083464;28;20183;-80
2021/07/21 00:33:01;;;;;;;;;;;;;;;-144.99;93.82;52240.19;5084976;28;19955;-81
2021/07/21 00:35:27;;;;;;;;;;;;;;;-144.99;93.94;52268.72;5091119;28;20030;-80
2021/07/21 00:37:54;;;;;;;;;;;;;;;-144.99;94.12;52258.53;5086775;28;19958;-80
2021/07/21 00:40:21;;;;;;;;;;;;;;;-144.99;94.31;52272.81;5089877;28;19963;-79
2021/07/21 00:42:47;;;;;;;;;;;;;;;-144.99;94.63;52266.69;5086903;28;20019;-79
2021/07/21 00:45:15;;;;;;;;;;;;;;;-144.99;94.36;52215.75;5085614;28;19978;-76
2021/07/21 00:47:42;;;;;;;;;;;;;;;-144.99;94.59;52248.34;5088884;28;19934;-80
2021/07/21 00:50:09;;;;;;;;;;;;;;;-144.99;94.01;52272.81;5087474;28;20410;-79
2021/07/21 00:52:36;;;;;;;;;;;;;;;-144.99;94.04;52272.81;5074470;28;20439;-80
2021/07/21 00:55:02;;;;;;;;;;;;;;;-144.99;94.15;52260.56;5082190;28;19968;-78
2021/07/21 00:57:29;;;;;;;;;;;;;;;-144.99;94.33;52285.03;5084809;28;20348;-79
2021/07/21 00:59:56;;;;;;;;;;;;;;;-144.99;94.75;52256.50;5089604;28;19950;-79
2021/07/21 01:02:24;;;;;;;;;;;;;;;-144.99;94.95;52272.81;5089728;28;19962;-79
2021/07/21 01:04:50;;;;;;;;;;;;;;;-144.99;94.64;52256.50;5086028;28;20307;-79
2021/07/21 01:07:17;;;;;;;;;;;;;;;-144.99;94.72;52248.34;5090471;28;19934;-79
2021/07/21 01:09:47;;;;;;;;;;;;;;;-144.99;94.43;52244.28;5089801;28;19928;-80
2021/07/21 01:12:17;;;;;;;;;;;;;;;-144.99;94.45;52272.81;5069420;28;20403;-79
2021/07/21 01:14:49;;;;;;;;;;;;;;;-144.99;94.31;52268.72;5074164;28;20041;-77
2021/07/21 01:17:19;;;;;;;;;;;;;;;-144.99;94.31;52285.03;5079102;28;20501;-78
2021/07/21 01:20:03;;;;;;;;;;;;;;;-144.99;94.48;52252.44;5082080;28;20048;-78
2021/07/21 01:22:31;;;;;;;;;;;;;;;-144.99;94.53;52268.72;5089258;28;19981;-79
2021/07/21 01:25:04;;;;;;;;;;;;;;;-144.99;94.40;52252.44;5089667;28;19924;-79
2021/07/21 01:27:34;;;;;;;;;;;;;;;-144.99;94.71;52260.56;5084874;28;20129;-79
2021/07/21 01:30:04;;;;;;;;;;;;;;;-144.99;94.82;52254.47;5087930;28;20584;-79
2021/07/21 01:32:32;;;;;;;;;;;;;;;-144.99;94.87;52246.31;5087739;28;19967;-76
2021/07/21 01:35:03;;;;;;;;;;;;;;;-144.99;94.95;52240.19;5087186;28;19972;-80
2021/07/21 01:37:30;;;;;;;;;;;;;;;-144.99;94.66;52244.28;5081680;28;19940;-78
2021/07/21 01:40:02;;;;;;;;;;;;;;;-144.99;94.84;52248.34;5079595;28;19928;-79
2021/07/21 01:42:29;;;;;;;;;;;;;;;-144.99;95.23;52236.13;5088344;28;19928;-78
2021/07/21 01:44:59;;;;;;;;;;;;;;;-144.99;95.46;52276.88;5088286;28;19932;-79
2021/07/21 01:47:27;;;;;;;;;;;;;;;-144.99;95.48;52262.63;5084314;28;20172;-76
2021/07/21 01:49:54;;;;;;;;;;;;;;;-144.99;95.48;52236.13;5085171;28;20014;-77
2021/07/21 01:52:23;;;;;;;;;;;;;;;-144.99;95.83;52244.28;5083495;28;20203;-78
2021/07/21 01:54:50;;;;;;;;;;;;;;;-144.99;96.21;52285.03;5129925;22;20011;-83
2021/07/21 01:57:17;;;;;;;;;;;;;;;-144.99;96.22;52264.66;5120003;28;19923;-79
2021/07/21 01:59:45;;;;;;;;;;;;;;;-144.99;96.33;52301.34;5123998;28;19959;-79
2021/07/21 02:02:14;;;;;;;;;;;;;;;-144.99;96.83;52246.31;5132670;28;19976;-80
2021/07/21 02:04:41;;;;;;;;;;;;;;;-144.99;97.11;52297.25;5125510;28;19954;-80
2021/07/21 02:07:07;;;;;;;;;;;;;;;-144.99;97.53;52252.44;5124245;28;19930;-79
2021/07/21 02:09:34;;;;;;;;;;;;;;;-144.99;97.95;52260.56;5132347;28;19954;-79
2021/07/21 02:12:01;;;;;;;;;;;;;;;-144.99;97.98;52276.88;5133888;27;19959;-77
2021/07/21 02:14:28;;;;;;;;;;;;;;;-144.99;98.66;52250.38;5124926;28;20405;-77
2021/07/21 02:16:56;;;;;;;;;;;;;;;-144.99;99.17;52270.78;5120829;28;20057;-76
2021/07/21 02:19:25;;;;;;;;;;;;;;;-144.99;99.46;52254.47;5113041;28;19962;-77
2021/07/21 02:21:53;;;;;;;;;;;;;;;-144.99;99.41;52276.88;5116227;28;19958;-76
2021/07/21 02:24:20;;;;;;;;;;;;;;;-144.99;99.72;52268.72;5120312;28;19966;-78
2021/07/21 02:26:47;;;;;;;;;;;;;;;-144.99;99.92;52260.56;5120577;28;20456;-78
2021/07/21 02:29:14;;;;;;;;;;;;;;;-144.99;99.82;52244.28;5107108;28;20460;-77
2021/07/21 02:31:42;;;;;;;;;;;;;;;-144.99;99.57;52260.56;5116106;28;19930;-78
2021/07/21 02:34:09;;;;;;;;;;;;;;;-144.99;100.00;52256.50;5113283;27;19970;-77
2021/07/21 02:36:36;;;;;;;;;;;;;;;-144.99;100.00;52254.47;5111197;28;19968;-78
2021/07/21 02:39:05;;;;;;;;;;;;;;;-144.99;100.00;52240.19;5107936;28;20032;-78
2021/07/21 02:41:31;;;;;;;;;;;;;;;-144.99;100.00;52268.72;5114862;28;19935;-78
2021/07/21 02:43:58;;;;;;;;;;;;;;;-144.99;100.00;52268.72;5114780;28;20329;-77
2021/07/21 02:46:24;;;;;;;;;;;;;;;-144.99;100.00;52280.97;5119601;28;20120;-77
2021/07/21 02:48:51;;;;;;;;;;;;;;;-144.99;100.00;52242.22;5120775;28;19934;-77
2021/07/21 02:51:22;;;;;;;;;;;;;;;-144.99;100.00;52264.66;5120765;28;19989;-77
2021/07/21 02:53:53;;;;;;;;;;;;;;;-144.99;100.00;52244.28;5117736;28;19934;-78
2021/07/21 02:56:22;;;;;;;;;;;;;;;-144.99;99.86;52252.44;5107316;28;20037;-78
2021/07/21 02:58:51;;;;;;;;;;;;;;;-144.99;100.00;52254.47;5111010;27;19934;-78
2021/07/21 03:01:19;;;;;;;;;;;;;;;-144.99;100.00;52280.97;5117847;28;20295;-79
2021/07/21 03:03:47;;;;;;;;;;;;;;;-144.99;100.00;52221.84;5115757;28;19960;-82
2021/07/21 03:06:14;;;;;;;;;;;;;;;-144.99;99.83;52219.81;5111178;28;20270;-81
2021/07/21 03:08:40;;;;;;;;;;;;;;;-144.99;99.72;52280.97;5107440;28;19983;-81
2021/07/21 03:11:11;;;;;;;;;;;;;;;-144.99;99.35;52248.34;5118570;28;20294;-82
2021/07/21 03:13:42;;;;;;;;;;;;;;;-144.99;99.76;52289.13;5116025;28;20068;-81
2021/07/21 03:16:10;;;;;;;;;;;;;;;-144.99;99.94;52256.50;5108964;28;19928;-81
2021/07/21 03:18:36;;;;;;;;;;;;;;;-144.99;99.89;52268.72;5114923;28;19941;-81
2021/07/21 03:21:03;;;;;;;;;;;;;;;-144.99;100.00;52232.03;5125950;28;19962;-82
2021/07/21 03:23:30;;;;;;;;;;;;;;;-144.99;100.00;52285.03;5122577;28;19931;-80
2021/07/21 03:26:00;;;;;;;;;;;;;;;-144.99;100.00;52293.19;5115373;28;20009;-79
2021/07/21 03:28:28;;;;;;;;;;;;;;;-144.99;100.00;52260.56;5108725;28;20037;-80
2021/07/21 03:30:55;;;;;;;;;;;;;;;-144.99;100.00;52252.44;5105247;28;19943;-81
2021/07/21 03:33:24;;;;;;;;;;;;;;;-144.99;100.00;52293.19;5117468;28;20464;-81
2021/07/21 03:35:52;;;;;;;;;;;;;;;-144.99;100.00;52250.38;5116289;28;20471;-81
2021/07/21 03:38:21;;;;;;;;;;;;;;;-144.99;100.00;52252.44;5116554;28;20014;-80
2021/07/21 03:40:51;;;;;;;;;;;;;;;-144.99;100.00;52264.66;5120080;28;19954;-82
2021/07/21 03:43:18;;;;;;;;;;;;;;;-144.99;100.00;52276.88;5119232;28;19939;-81
2021/07/21 03:45:46;;;;;;;;;;;;;;;-144.99;100.00;52232.03;5117974;28;19963;-80
2021/07/21 03:48:12;;;;;;;;;;;;;;;-144.99;100.00;52276.88;5133291;27;19965;-78
2021/07/21 03:50:39;;;;;;;;;;;;;;;-144.99;100.00;52285.03;5133935;27;19936;-78
2021/07/21 03:53:07;;;;;;;;;;;;;;;-144.99;100.00;52256.50;5124297;27;19980;-81
2021/07/21 03:55:36;;;;;;;;;;;;;;;-144.99;100.00;52260.56;5112971;28;20201;-78
2021/07/21 03:58:03;;;;;;;;;;;;;;;-144.99;100.00;52280.97;5105550;28;20027;-80
2021/07/21 04:00:29;;;;;;;;;;;;;;;-144.99;100.00;52252.44;5110535;28;19997;-81
2021/07/21 04:02:58;;;;;;;;;;;;;;;-144.99;100.00;52303.38;5123371;28;19952;-78
2021/07/21 04:05:25;;;;;;;;;;;;;;;-144.99;100.00;52276.88;5131222;27;19963;-81
2021/07/21 04:07:53;;;;;;;;;;;;;;;-144.99;100.00;52260.56;5117956;28;19944;-79
2021/07/21 04:10:21;;;;;;;;;;;;;;;-144.99;100.00;52264.66;5104683;28;19939;-77
2021/07/21 04:12:49;;;;;;;;;;;;;;;-144.99;100.00;52256.50;5112105;28;20330;-77
2021/07/21 04:15:16;;;;;;;;;;;;;;;-144.99;100.00;52285.03;5106829;28;19931;-77
2021/07/21 04:17:45;;;;;;;;;;;;;;;-144.99;100.00;52244.28;5110653;28;20059;-80
2021/07/21 04:20:13;;;;;;;;;;;;;;;-144.99;100.00;52309.50;5109273;28;19967;-72
2021/07/21 04:22:41;;;;;;;;;;;;;;;-144.99;100.00;52272.81;5106127;28;19941;-73
2021/07/21 04:25:10;;;;;;;;;;;;;;;-144.99;100.00;52289.13;5109787;28;20514;-73
2021/07/21 04:27:37;;;;;;;;;;;;;;;-144.99;100.00;52264.66;5108718;28;19939;-73
2021/07/21 04:30:04;;;;;;;;;;;;;;;-144.99;100.00;52280.97;5102721;28;20109;-73
2021/07/21 04:32:30;;;;;;;;;;;;;;;-144.99;100.00;52268.72;5102925;28;20390;-73
2021/07/21 04:34:57;;;;;;;;;;;;;;;-144.99;100.00;52276.88;5107694;28;20153;-73
2021/07/21 04:37:24;;;;;;;;;;;;;;;-144.99;100.00;52264.66;5104634;28;20409;-73
2021/07/21 04:39:52;;;;;;;;;;;;;;;-144.99;100.00;52248.34;5100506;28;19965;-73
2021/07/21 04:42:19;;;;;;;;;;;;;;;-144.99;100.00;52268.72;5105688;28;20032;-73
2021/07/21 04:44:46;;;;;;;;;;;;;;;-144.99;100.00;52244.28;5107654;28;20031;-73
2021/07/21 04:47:13;;;;;;;;;;;;;;;-144.99;100.00;52256.50;5108668;28;19946;-73
2021/07/21 04:49:40;;;;;;;;;;;;;;;-144.99;100.00;52268.72;5104180;28;20428;-72
2021/07/21 04:52:07;;;;;;;;;;;;;;;-144.99;100.00;52240.19;5106596;28;19945;-74
2021/07/21 04:54:34;;;;;;;;;;;;;;;-144.99;100.00;52268.72;5098212;28;20085;-71
2021/07/21 04:57:01;;;;;;;;;;;;;;;-144.99;100.00;52276.88;5110445;28;19966;-71
2021/07/21 04:59:28;;;;;;;;;;;;;;;-144.99;100.00;52264.66;5105193;28;20182;-72
2021/07/21 05:01:54;;;;;;;;;;;;;;;-144.99;100.00;52276.88;5101446;28;20033;-73
2021/07/21 05:04:21;;;;;;;;;;;;;;;-144.99;100.00;52256.50;5104006;28;19924;-72
2021/07/21 05:06:47;;;;;;;;;;;;;;;-144.99;100.00;52252.44;5107772;28;19956;-71
2021/07/21 05:09:14;;;;;;;;;;;;;;;-144.99;100.00;52236.13;5107310;28;19950;-72
2021/07/21 05:11:42;;;;;;;;;;;;;;;-144.99;100.00;52264.66;5098961;27;19989;-76
2021/07/21 05:14:09;;;;;;;;;;;;;;;-144.99;100.00;52223.88;4389683;28;10000722;-78
2021/07/21 05:16:35;;;;;;;;;;;;;;;-144.99;100.00;52338.03;4753402;28;10000305;-79
2021/07/21 05:19:02;;;;;;;;;;;;;;;-144.99;100.00;52256.50;5109169;28;19960;-78
2021/07/21 05:21:30;;;;;;;;;;;;;;;-144.99;100.00;52260.56;5102652;28;19942;-81
2021/07/21 05:23:56;;;;;;;;;;;;;;;-144.99;100.00;52264.66;5107100;28;19970;-80
2021/07/21 05:26:23;;;;;;;;;;;;;;;-144.99;100.00;52264.66;5100222;28;20452;-77
2021/07/21 05:28:51;;;;;;;;;;;;;;;-144.99;100.00;52260.56;5098156;28;20515;-77
2021/07/21 05:31:18;;;;;;;;;;;;;;;-144.99;100.00;52280.97;5097600;28;19992;-79
2021/07/21 05:33:44;;;;;;;;;;;;;;;-144.99;100.00;52264.66;5108888;28;19942;-78
2021/07/21 05:36:11;;;;;;;;;;;;;;;-144.99;100.00;52244.28;5111232;28;19942;-79
2021/07/21 05:38:38;;;;;;;;;;;;;;;-144.99;100.00;52254.47;5103696;28;19943;-77
2021/07/21 05:41:05;;;;;;;;;;;;;;;-144.99;100.00;52307.47;5102901;28;19942;-77
2021/07/21 05:43:32;;;;;;;;;;;;;;;-144.99;100.00;52280.97;5103203;28;20299;-77
2021/07/21 05:45:59;;;;;;;;;;;;;;;-144.99;100.00;52248.34;5099543;28;20302;-75
2021/07/21 05:48:26;;;;;;;;;;;;;;;-144.99;100.00;52240.19;5104104;28;20372;-76
2021/07/21 05:50:54;;;;;;;;;;;;;;;-144.99;100.00;52278.91;5100159;28;19947;-77
2021/07/21 05:53:20;;;;;;;;;;;;;;;-144.99;100.00;52262.63;5097513;28;19991;-76
2021/07/21 05:55:48;;;;;;;;;;;;;;;-144.99;100.00;52242.22;5102620;28;19975;-76
2021/07/21 05:58:15;;;;;;;;;;;;;;;-144.99;100.00;52264.66;5098259;28;19987;-76
2021/07/21 06:00:42;;;;;;;;;;;;;;;-144.99;100.00;52256.50;5102794;28;19957;-76
2021/07/21 06:03:10;;;;;;;;;;;;;;;-144.99;100.00;52252.44;5097025;28;19947;-76
2021/07/21 06:05:38;;;;;;;;;;;;;;;-144.99;100.00;52264.66;5103195;28;19954;-77
2021/07/21 06:08:04;;;;;;;;;;;;;;;-144.99;100.00;52219.81;5102341;28;19950;-75
2021/07/21 06:10:31;;;;;;;;;;;;;;;-144.99;100.00;52219.81;5103100;28;19942;-76
2021/07/21 06:12:58;;;;;;;;;;;;;;;-144.99;100.00;52240.19;5104483;28;20306;-77
2021/07/21 06:15:27;;;;;;;;;;;;;;;-144.99;100.00;52260.56;5091815;28;19924;-76
2021/07/21 06:17:54;;;;;;;;;;;;;;;-144.99;100.00;52272.81;5088416;28;19942;-77
2021/07/21 06:20:22;;;;;;;;;;;;;;;-144.99;100.00;52248.34;5090575;28;19975;-75
2021/07/21 06:22:48;;;;;;;;;;;;;;;-144.99;100.00;52242.22;5104245;28;19967;-77
2021/07/21 06:25:15;;;;;;;;;;;;;;;-144.99;100.00;52268.72;5103973;28;20065;-77
2021/07/21 06:27:42;;;;;;;;;;;;;;;-144.99;100.00;52248.34;5104422;28;20005;-76
2021/07/21 06:30:09;;;;;;;;;;;;;;;-144.99;100.00;52232.03;5105708;28;20340;-77
2021/07/21 06:32:36;;;;;;;;;;;;;;;-144.99;100.00;52252.44;5104785;28;19967;-80
2021/07/21 06:35:03;;;;;;;;;;;;;;;-144.99;100.00;52260.56;5104759;28;20022;-77
2021/07/21 06:37:31;;;;;;;;;;;;;;;-144.99;100.00;52193.31;5104707;28;20415;-79
2021/07/21 06:39:58;;;;;;;;;;;;;;;-144.99;100.00;52250.38;5098316;28;19942;-78
2021/07/21 06:42:24;;;;;;;;;;;;;;;-144.99;100.00;52230.00;5101314;28;19954;-76
2021/07/21 06:44:51;;;;;;;;;;;;;;;-144.99;100.00;52260.56;5104248;28;19937;-77
2021/07/21 06:47:18;;;;;;;;;;;;;;;-144.99;100.00;52252.44;5105014;28;19956;-78
2021/07/21 06:49:44;;;;;;;;;;;;;;;-144.99;100.00;52242.22;5100655;28;19984;-77
2021/07/21 06:52:10;;;;;;;;;;;;;;;-144.99;100.00;52230.00;5107194;28;20452;-79
2021/07/21 06:54:38;;;;;;;;;;;;;;;-144.99;100.00;52276.88;5101052;28;19938;-78
2021/07/21 06:57:05;;;;;;;;;;;;;;;-144.99;100.00;52260.56;5108128;28;19948;-78
2021/07/21 06:59:32;;;;;;;;;;;;;;;-144.99;100.00;52293.19;5105325;28;20281;-76
2021/07/21 07:01:59;;;;;;;;;;;;;;;-144.99;100.00;52280.97;5107467;28;19938;-80
2021/07/21 07:04:25;;;;;;;;;;;;;;;-144.99;100.00;52244.28;5106179;28;20294;-78
2021/07/21 07:06:52;;;;;;;;;;;;;;;-144.99;100.00;52236.13;5108719;28;20446;-79
2021/07/21 07:09:18;;;;;;;;;;;;;;;-144.99;100.00;52270.78;5108643;28;19932;-76
2021/07/21 07:11:46;;;;;;;;;;;;;;;-144.99;100.00;52276.88;5096411;28;19950;-76
2021/07/21 07:14:12;;;;;;;;;;;;;;;-144.99;100.00;52215.75;5099844;28;20034;-76
2021/07/21 07:16:39;;;;;;;;;;;;;;;-144.99;100.00;52272.81;5099648;28;20409;-76
2021/07/21 07:19:05;;;;;;;;;;;;;;;-144.99;100.00;52256.50;5106237;28;19973;-76
2021/07/21 07:21:32;;;;;;;;;;;;;;;-144.99;100.00;52280.97;5106148;28;19988;-75
2021/07/21 07:23:58;;;;;;;;;;;;;;;-144.99;100.00;52280.97;5104738;28;19948;-76
2021/07/21 07:26:25;;;;;;;;;;;;;;;-144.99;100.00;52268.72;5107491;28;19953;-79
2021/07/21 07:28:54;;;;;;;;;;;;;;;-144.99;100.00;52264.66;5101222;28;19942;-78
2021/07/21 07:31:20;;;;;;;;;;;;;;;-144.99;100.00;52264.66;5106834;28;20359;-76
2021/07/21 07:33:47;;;;;;;;;;;;;;;-144.99;100.00;52256.50;5098203;28;20347;-77
2021/07/21 07:36:13;;;;;;;;;;;;;;;-144.99;100.00;52244.28;5094687;28;19964;-74
2021/07/21 07:38:40;;;;;;;;;;;;;;;-144.99;100.00;52276.88;5100288;28;19947;-77
2021/07/21 07:41:06;;;;;;;;;;;;;;;-144.99;100.00;52266.69;5103860;28;19949;-77
2021/07/21 07:43:36;;;;;;;;;;;;;;;-144.99;100.00;52272.81;5096706;28;19945;-77
2021/07/21 07:46:04;;;;;;;;;;;;;;;-144.99;100.00;52240.19;5101637;28;19959;-77
2021/07/21 07:48:31;;;;;;;;;;;;;;;-144.99;100.00;52227.97;5105984;28;19928;-77
2021/07/21 07:50:57;;;;;;;;;;;;;;;-144.99;100.00;52278.91;5103744;28;20050;-78
2021/07/21 07:53:24;;;;;;;;;;;;;;;-144.99;100.00;52266.69;5098523;28;20342;-78
2021/07/21 07:55:50;;;;;;;;;;;;;;;-144.99;100.00;52240.19;5101117;28;19958;-77
2021/07/21 07:58:17;;;;;;;;;;;;;;;-144.99;100.00;52240.19;5092796;28;20108;-76
2021/07/21 08:00:43;;;;;;;;;;;;;;;-144.99;100.00;52256.50;5119101;22;20434;-75
2021/07/21 08:03:11;;;;;;;;;;;;;;;-144.99;100.00;52256.50;5081060;28;19928;-78
2021/07/21 08:05:37;;;;;;;;;;;;;;;-144.99;100.00;52264.66;5076174;28;19962;-79
2021/07/21 08:08:04;;;;;;;;;;;;;;;-144.99;100.00;52256.50;5084405;28;19983;-76
2021/07/21 08:10:31;;;;;;;;;;;;;;;-144.99;100.00;52250.38;5083705;28;19958;-76
2021/07/21 08:12:57;;;;;;;;;;;;;;;-144.99;100.00;52248.34;5075826;28;19929;-74
2021/07/21 08:15:24;;;;;;;;;;;;;;;-144.99;100.00;52256.50;5080228;28;20457;-79
2021/07/21 08:17:52;;;;;;;;;;;;;;;-144.99;100.00;52223.88;5075016;28;19943;-76
2021/07/21 08:20:20;;;;;;;;;;;;;;;-144.99;100.00;52236.13;5082985;28;19954;-77
2021/07/21 08:22:46;;;;;;;;;;;;;;;-144.99;100.00;52211.66;5083313;28;20015;-76
2021/07/21 08:25:14;;;;;;;;;;;;;;;-144.99;99.08;52215.75;5081346;28;19963;-76
2021/07/21 08:27:40;;;;;;;;;;;;;;;-144.99;98.44;52203.50;5084491;28;19946;-76
2021/07/21 08:30:12;;;;;;;;;;;;;;;-144.99;95.62;52207.59;5076733;28;20010;-76
2021/07/21 08:32:38;;;;;;;;;;;;;;;-144.99;94.76;52223.88;5074082;28;19938;-74
2021/07/21 08:35:05;;;;;;;;;;;;;;;-144.99;94.24;52260.56;5073557;28;19935;-78
2021/07/21 08:37:33;;;;;;;;;;;;;;;-144.99;93.43;52193.31;5078722;28;19934;-78
2021/07/21 08:40:02;;;;;;;;;;;;;;;-144.99;92.77;52211.66;5083226;28;20430;-78
2021/07/21 08:42:28;;;;;;;;;;;;;;;-144.99;93.55;52217.78;5084086;28;19946;-78
2021/07/21 08:44:55;;;;;;;;;;;;;;;-144.99;93.37;52223.88;5074724;28;19931;-79
2021/07/21 08:47:22;;;;;;;;;;;;;;;-144.99;90.66;52187.19;5082310;28;20336;-75
2021/07/21 08:49:49;;;;;;;;;;;;;;;-144.99;89.16;52203.50;5081659;28;19934;-78
2021/07/21 08:52:15;;;;;;;;;;;;;;;-144.99;87.44;52197.41;5083512;28;19928;-76
2021/07/21 08:54:44;;;;;;;;;;;;;;;-144.99;86.81;52215.75;5079668;28;19970;-81
2021/07/21 08:57:11;;;;;;;;;;;;;;;-144.99;86.84;52207.59;5084089;28;19967;-78
2021/07/21 08:59:38;;;;;;;;;;;;;;;-144.99;85.82;52201.47;5083584;28;19924;-77
2021/07/21 09:02:04;;;;;;;;;;;;;;;-144.99;87.02;52252.44;5078676;28;19934;-75
2021/07/21 09:04:32;;;;;;;;;;;;;;;-144.99;87.83;52234.09;5080867;28;19938;-78
2021/07/21 09:06:59;;;;;;;;;;;;;;;-144.99;88.12;52250.38;5084180;28;20283;-80
2021/07/21 09:09:25;;;;;;;;;;;;;;;-144.99;88.35;52215.75;5083542;28;19931;-76
2021/07/21 09:11:55;;;;;;;;;;;;;;;-144.99;89.30;52238.16;5076833;28;19928;-78
2021/07/21 09:14:21;;;;;;;;;;;;;;;-144.99;91.23;52248.34;5081536;28;20018;-77
2021/07/21 09:17:03;;;;;;;;;;;;;;;-144.99;92.73;52232.03;5083982;28;20190;-79
2021/07/21 09:19:32;;;;;;;;;;;;;;;-144.99;94.43;52244.28;5064201;28;19983;-80
2021/07/21 09:22:11;;;;;;;;;;;;;;;-144.99;96.28;52280.97;5073093;28;19959;-78
2021/07/21 09:24:37;;;;;;;;;;;;;;;-144.99;96.97;52252.44;5084952;28;19924;-74
2021/07/21 09:27:05;;;;;;;;;;;;;;;-144.99;97.47;52291.16;5084299;28;19932;-78
2021/07/21 09:29:32;;;;;;;;;;;;;;;-144.99;98.17;52232.03;5079545;28;19928;-73
2021/07/21 09:31:59;;;;;;;;;;;;;;;-144.99;97.38;52268.72;5084348;28;20248;-78
2021/07/21 09:34:26;;;;;;;;;;;;;;;-144.99;98.04;52250.38;5082462;28;19928;-74
2021/07/21 09:37:00;;;;;;;;;;;;;;;-144.99;97.20;52240.19;5083044;28;20509;-79
2021/07/21 09:39:30;;;;;;;;;;;;;;;-144.99;97.10;52270.78;5080888;28;19924;-77
2021/07/21 09:41:57;;;;;;;;;;;;;;;-144.99;96.92;52223.88;5083069;28;19934;-76
2021/07/21 09:44:33;;;;;;;;;;;;;;;-144.99;95.96;52256.50;5082355;28;20461;-77
2021/07/21 09:47:10;;;;;;;;;;;;;;;-144.99;94.61;52252.44;5083828;28;20456;-76
2021/07/21 09:49:36;;;;;;;;;;;;;;;-144.99;94.06;52209.63;5080811;28;20299;-73
2021/07/21 09:52:13;;;;;;;;;;;;;;;-144.99;91.46;52234.09;5073206;28;19931;-78
2021/07/21 09:54:40;;;;;;;;;;;;;;;-144.99;91.14;52221.84;5076086;28;19961;-80
2021/07/21 09:57:12;;;;;;;;;;;;;;;-144.99;90.00;52219.81;5085731;28;20369;-79
2021/07/21 09:59:40;;;;;;;;;;;;;;;-144.99;90.05;52223.88;5084225;28;19928;-79
2021/07/21 10:02:16;;;;;;;;;;;;;;;-144.99;88.41;52199.44;5087291;28;20026;-75
2021/07/21 10:04:46;;;;;;;;;;;;;;;-144.99;86.86;52203.50;5088921;28;20016;-77
2021/07/21 10:07:33;;;;;;;;;;;;;;;-144.99;86.12;52240.19;5078791;28;20242;-79
2021/07/21 10:10:09;;;;;;;;;;;;;;;-144.99;87.65;52244.28;5072627;28;19925;-80
2021/07/21 10:12:36;;;;;;;;;;;;;;;-144.99;87.46;52217.78;5073075;28;20334;-79
2021/07/21 10:15:04;;;;;;;;;;;;;;;-144.99;87.32;52223.88;5069259;28;20017;-79
2021/07/21 10:17:30;;;;;;;;;;;;;;;-144.99;86.25;52199.44;5080534;28;19935;-80
2021/07/21 10:19:57;;;;;;;;;;;;;;;-144.99;86.25;52203.50;5081874;28;19927;-80
2021/07/21 10:22:24;;;;;;;;;;;;;;;-144.99;85.08;52199.44;5082158;28;19928;-77
2021/07/21 10:24:51;;;;;;;;;;;;;;;-144.99;83.38;52207.59;5087925;28;20106;-79
2021/07/21 10:27:17;;;;;;;;;;;;;;;-144.99;82.82;52238.16;5088507;28;20291;-79
2021/07/21 10:29:44;;;;;;;;;;;;;;;-144.99;82.44;52207.59;5082886;28;19928;-79
2021/07/21 10:32:14;;;;;;;;;;;;;;;-144.99;81.95;52187.19;5080706;28;19928;-81
2021/07/21 10:34:41;;;;;;;;;;;;;;;-144.99;81.62;52164.78;5079412;28;19928;-75
2021/07/21 10:37:08;;;;;;;;;;;;;;;-144.99;80.90;52162.75;5075806;28;19935;-77
2021/07/21 10:39:36;;;;;;;;;;;;;;;-144.99;81.07;52215.75;5086646;28;19924;-81
2021/07/21 10:42:03;;;;;;;;;;;;;;;-144.99;80.82;52199.44;5086288;28;19954;-79
2021/07/21 10:44:29;;;;;;;;;;;;;;;-144.99;81.15;52227.97;5074869;28;19924;-79
2021/07/21 10:46:56;;;;;;;;;;;;;;;-144.99;81.33;52195.34;5084622;28;19928;-79
2021/07/21 10:49:29;;;;;;;;;;;;;;;-144.99;78.47;52211.66;5083618;28;19932;-78
2021/07/21 10:52:31;;;;;;;;;;;;;;;-144.99;77.37;52172.94;5084189;28;20006;-78
2021/07/21 10:54:59;;;;;;;;;;;;;;;-144.99;77.09;52170.91;5084376;28;19928;-80
2021/07/21 11:00:12;;;;;;;;;;;;;;;-144.99;74.50;52073.06;5085193;28;19939;-76
2021/07/21 11:02:38;;;;;;;;;;;;;;;-144.99;74.06;52162.75;5083586;28;19924;-79
2021/07/21 11:05:08;;;;;;;;;;;;;;;-144.99;73.32;52121.97;5085475;28;19938;-77
2021/07/21 11:07:51;;;;;;;;;;;;;;;-144.99;71.79;52121.97;5086219;28;20345;-78
2021/07/21 11:10:30;;;;;;;;;;;;;;;-144.99;70.11;52146.44;5085494;28;19927;-77
2021/07/21 11:12:56;;;;;;;;;;;;;;;-144.99;69.55;52160.72;5077821;28;20015;-79
2021/07/21 11:15:41;;;;;;;;;;;;;;;-144.99;69.91;52179.06;5081540;28;20018;-80
2021/07/21 11:18:42;;;;;;;;;;;;;;;-144.99;70.68;52142.38;5085036;28;20314;-79
2021/07/21 11:21:12;;;;;;;;;;;;;;;-144.99;70.08;52162.75;4983016;28;20017;-78
2021/07/21 11:23:42;;;;;;;;;;;;;;;-144.99;69.64;52089.38;4979681;28;19930;-79
2021/07/21 11:26:23;;;;;;;;;;;;;;;-144.99;68.17;52170.91;5022131;28;19928;-78
2021/07/21 11:28:50;;;;;;;;;;;;;;;-144.99;66.68;52142.38;5078356;28;19928;-81
2021/07/21 11:31:16;;;;;;;;;;;;;;;-144.99;67.61;52105.69;5076403;28;20011;-79
2021/07/21 11:33:43;;;;;;;;;;;;;;;-144.99;67.72;52081.22;5081122;28;19951;-80
2021/07/21 11:36:12;;;;;;;;;;;;;;;-144.99;67.73;52126.06;5084920;28;20023;-80
2021/07/21 11:38:48;;;;;;;;;;;;;;;-144.99;67.14;52093.44;5083623;28;19928;-79
2021/07/21 11:41:29;;;;;;;;;;;;;;;-144.99;64.84;52154.59;5084643;28;19932;-80
2021/07/21 11:44:01;;;;;;;;;;;;;;;-144.99;64.22;52069.00;5082456;28;19928;-80
2021/07/21 11:46:28;;;;;;;;;;;;;;;-144.99;61.66;52032.31;5083423;28;19928;-79
2021/07/21 11:48:54;;;;;;;;;;;;;;;-144.99;61.15;52142.38;5082764;28;19939;-81
2021/07/21 11:51:22;;;;;;;;;;;;;;;-144.99;59.26;52050.66;5083289;28;20038;-81
2021/07/21 11:53:48;;;;;;;;;;;;;;;-144.99;59.54;52064.91;5083648;28;19928;-80
2021/07/21 11:56:16;;;;;;;;;;;;;;;-144.99;58.54;52146.44;5080866;28;19935;-79
2021/07/21 11:58:43;;;;;;;;;;;;;;;-144.99;59.00;52105.69;5084094;28;19966;-80
2021/07/21 12:01:09;;;;;;;;;;;;;;;-144.99;59.40;52142.38;5084837;28;19977;-79
2021/07/21 12:03:46;;;;;;;;;;;;;;;-144.99;57.90;52121.97;5077983;28;19950;-80
2021/07/21 12:06:22;;;;;;;;;;;;;;;-144.99;56.33;52197.41;5083616;28;19928;-77
2021/07/21 12:08:53;;;;;;;;;;;;;;;-144.99;57.41;52048.63;5077102;28;19924;-80
2021/07/21 12:11:19;;;;;;;;;;;;;;;-144.99;57.38;52042.50;5084890;28;19924;-81
2021/07/21 12:13:45;;;;;;;;;;;;;;;-144.99;56.84;52113.84;5084738;28;20057;-79
2021/07/21 12:16:12;;;;;;;;;;;;;;;-144.99;57.37;52130.13;5079061;28;19938;-82
2021/07/21 12:18:38;;;;;;;;;;;;;;;-144.99;56.93;52101.59;5075709;28;19928;-79
2021/07/21 12:21:05;;;;;;;;;;;;;;;-144.99;57.51;52150.53;5084437;28;20343;-81
2021/07/21 12:23:32;;;;;;;;;;;;;;;-144.99;56.55;52126.06;5086097;28;20410;-80
2021/07/21 12:26:05;;;;;;;;;;;;;;;-144.99;57.33;52154.59;5083038;28;20254;-79
2021/07/21 12:28:31;;;;;;;;;;;;;;;-144.99;55.51;52050.66;5080427;28;19925;-78
2021/07/21 12:30:58;;;;;;;;;;;;;;;-144.99;55.70;52158.66;5081075;28;19931;-82
2021/07/21 12:33:24;;;;;;;;;;;;;;;-144.99;54.73;52126.06;5085770;28;19932;-79